< Cyclone 200011 2000 Season Cyclone 200013 >
Cyclone 200012 (ROSITA)
General InformationDetailed Track InformationTrack Information on Google MapsList of All Images || ResourceGoogle EarthGE AnimationAtom FeedGeoJSON
Detalied Best Track Wind (Time Zone = UTC)
Year Month Day Hour Lat. Long. Wind (kt) Gust (kt) Direc. of Major Storm Axis Radius of Major Storm Axis (nm) Radius of Minor Storm Axis (nm) Direc. of Major Gale Axis Radius of Major Gale Axis (nm) Radius of Minor Gale Axis (nm) Image
2000 4 14 04 -9.4 127.0 20 45 symmetric - - symmetric - - Image
2000 4 15 04 -11.9 122.0 20 45 symmetric - - symmetric - - Image
2000 4 15 10 -12.1 121.0 20 45 symmetric - - symmetric - - Image
2000 4 15 16 -12.2 120.0 25 45 symmetric - - symmetric - - Image
2000 4 15 22 -12.5 119.7 25 45 symmetric - - symmetric - - Image
2000 4 16 04 -12.8 119.6 25 45 symmetric - - symmetric - - Image
2000 4 16 10 -13.0 119.5 25 45 symmetric - - symmetric - - Image
2000 4 16 16 -13.2 119.5 25 45 symmetric - - symmetric - - Image
2000 4 16 22 -13.5 119.5 25 45 symmetric - - symmetric - - Image
2000 4 17 04 -13.9 119.5 25 45 symmetric - - symmetric - - Image
2000 4 17 10 -14.5 119.4 25 45 symmetric - - symmetric - - Image
2000 4 17 16 -15.1 119.3 30 45 symmetric - - symmetric - - Image
2000 4 17 22 -15.6 119.3 35 50 symmetric - - symmetric - - Image
2000 4 18 04 -16.2 119.3 35 50 symmetric - - symmetric - - Image
2000 4 18 10 -16.7 119.3 50 70 symmetric - - symmetric - - Image
2000 4 18 16 -17.1 119.4 65 90 symmetric - - symmetric - - Image
2000 4 18 22 -17.3 119.9 80 110 symmetric - - symmetric - - Image
2000 4 19 04 -17.5 120.3 90 125 symmetric - - symmetric - - Image
2000 4 19 07 -17.6 120.7 110 155 symmetric - - symmetric - - Image
2000 4 19 10 -17.7 121.1 115 160 symmetric - - symmetric - - Image
2000 4 19 13 -17.8 121.6 120 170 symmetric - - symmetric - - Image
2000 4 19 16 -18.1 122.0 120 170 symmetric - - symmetric - - Image
2000 4 19 19 -18.4 122.5 95 135 symmetric - - symmetric - - Image
2000 4 19 22 -18.6 123.0 85 120 symmetric - - symmetric - - Image
2000 4 20 01 -18.9 123.5 75 105 symmetric - - symmetric - - Image
2000 4 20 10 -19.8 125.7 55 75 symmetric - - symmetric - - Image
2000 4 20 13 -20.0 126.6 40 55 symmetric - - symmetric - - Image
2000 4 20 16 -20.2 127.7 35 50 symmetric - - symmetric - - Image
2000 4 20 22 -20.5 129.7 30 45 symmetric - - symmetric - - Image
< Cyclone 200011 2000 Season Cyclone 200013 >

Help